Terminal Aerodrome Forecast
Issued by NWS Green Bay, WI

Home | Current Version | Previous Version | Text Only | Print | Product List | Glossary On
Versions: 1 2 3 4 5 6 7 8 9 10 11 12 13 14 15 16 17 18 19 20 21 22 23 24 25 26 27 28 29 30
939
FTUS43 KGRB 250520
TAFGRB
TAF
KGRB 250520Z 2506/2606 04015G25KT P6SM VCSH SCT040 BKN080
      TEMPO 2506/2507 6SM -SHRA BKN040
     FM250800 01009KT P6SM SCT080
      TEMPO 2508/2512 3SM BR
     FM251300 36010G17KT P6SM SCT035
     FM260000 VRB03KT P6SM SKC=

USA.gov is the U.S. government's official web portal to all federal, state and local government web resources and services.